Time;durP1;ratioP1;P1;durP2;ratioP2;P2;SDS_P1;SDS_P2;PMS_P1;PMS_P2;Temp;Humidity;BMP_temperature;BMP_pressure;BME280_temperature;BME280_humidity;BME280_pressure;Samples;Min_cycle;Max_cycle;Signal;HPM_P1;HPM_P2
2023/04/01 00:37:11;;;;;;;5.80;2.60;;;;;;;6.22;73.91;100130.77;102491;1292;615709;-88
2023/04/01 00:39:41;;;;;;;13.60;3.60;;;;;;;6.20;74.68;100131.23;105612;1263;60229;-84
2023/04/01 00:42:08;;;;;;;7.90;3.40;;;;;;;6.18;75.02;100129.94;105577;1262;61211;-87
2023/04/01 00:44:36;;;;;;;5.80;2.80;;;;;;;6.15;75.44;100133.23;105520;1262;72906;-84
2023/04/01 00:47:03;;;;;;;10.80;3.40;;;;;;;6.11;75.90;100131.53;105481;1257;62701;-83
2023/04/01 00:49:37;;;;;;;8.10;3.10;;;;;;;6.07;76.51;100137.10;105025;1262;601289;-86
2023/04/01 00:52:06;;;;;;;11.10;3.50;;;;;;;6.02;76.83;100135.61;105778;1259;62298;-84
2023/04/01 00:54:34;;;;;;;8.40;3.00;;;;;;;5.98;77.45;100139.94;105540;1260;61226;-85
2023/04/01 00:57:07;;;;;;;8.40;3.10;;;;;;;5.97;78.07;100143.66;105683;1258;72983;-84
2023/04/01 00:59:37;;;;;;;11.70;3.10;;;;;;;5.96;78.50;100142.33;105664;1261;63774;-84
2023/04/01 01:02:06;;;;;;;8.00;2.60;;;;;;;5.95;78.91;100145.48;105613;1260;73627;-85
2023/04/01 01:04:35;;;;;;;9.40;2.70;;;;;;;5.93;78.92;100142.27;105776;1258;61378;-84
2023/04/01 01:07:17;;;;;;;4.60;2.10;;;;;;;5.91;79.31;100146.33;105718;1263;60357;-83
2023/04/01 01:10:03;;;;;;;9.00;3.30;;;;;;;5.89;79.40;100145.73;105655;1260;74286;-84
2023/04/01 01:12:58;;;;;;;9.70;3.50;;;;;;;5.89;79.64;100150.45;105752;1258;64909;-85
2023/04/01 01:15:29;;;;;;;5.40;2.10;;;;;;;5.87;80.01;100153.64;105830;1259;73531;-83
2023/04/01 01:18:20;;;;;;;5.30;2.60;;;;;;;5.85;80.30;100155.98;105992;1258;60301;-85
2023/04/01 01:21:22;;;;;;;8.60;3.10;;;;;;;5.82;80.57;100154.58;105777;1259;60682;-84
2023/04/01 01:24:06;;;;;;;7.00;2.10;;;;;;;5.79;80.88;100159.23;105805;1259;73922;-87
2023/04/01 01:26:40;;;;;;;5.00;2.00;;;;;;;5.77;81.23;100157.77;106464;1259;64860;-85
2023/04/01 01:29:45;;;;;;;7.60;2.80;;;;;;;5.75;81.55;100159.21;105774;1259;72404;-88
2023/04/01 01:32:18;;;;;;;8.10;2.60;;;;;;;5.75;81.67;100159.23;105729;1254;61956;-87
2023/04/01 01:35:13;;;;;;;10.50;2.70;;;;;;;5.73;81.71;100158.13;105776;1260;60165;-85
2023/04/01 01:37:40;;;;;;;5.10;2.30;;;;;;;5.73;81.73;100160.56;105710;1254;73988;-89
2023/04/01 01:40:09;;;;;;;6.70;2.10;;;;;;;5.72;81.96;100159.55;105467;1256;63738;-86
2023/04/01 01:42:40;;;;;;;7.10;2.20;;;;;;;5.70;81.94;100160.20;105722;1258;72745;-87
2023/04/01 01:45:08;;;;;;;5.40;1.90;;;;;;;5.68;82.41;100151.60;105685;1259;62992;-86
2023/04/01 01:47:36;;;;;;;5.60;2.30;;;;;;;5.68;82.76;100159.02;105649;1257;61017;-85
2023/04/01 01:50:06;;;;;;;6.40;2.30;;;;;;;5.68;82.70;100159.77;105510;1257;73874;-86
2023/04/01 01:52:34;;;;;;;7.70;2.60;;;;;;;5.68;82.92;100156.79;105752;1259;64835;-87
2023/04/01 01:55:00;;;;;;;8.10;2.50;;;;;;;5.69;83.01;100160.74;105681;1257;73586;-87
2023/04/01 01:57:38;;;;;;;8.20;2.20;;;;;;;5.68;82.66;100155.91;106095;1251;62102;-87
2023/04/01 02:00:13;;;;;;;8.00;2.40;;;;;;;5.70;82.89;100156.73;106076;1251;61214;-87
2023/04/01 02:02:45;;;;;;;5.40;2.20;;;;;;;5.70;82.92;100160.66;106102;1251;73892;-87
2023/04/01 02:05:21;;;;;;;5.90;1.90;;;;;;;5.71;83.13;100158.03;107159;1251;63679;-85
2023/04/01 02:08:07;;;;;;;9.60;2.60;;;;;;;5.73;83.41;100153.78;106209;1256;72502;-86
2023/04/01 02:10:36;;;;;;;4.50;2.90;;;;;;;5.76;83.47;100153.80;106099;1250;61081;-87
2023/04/01 02:13:18;;;;;;;7.50;2.10;;;;;;;5.80;83.62;100152.08;105975;1251;61398;-87
2023/04/01 02:15:46;;;;;;;5.70;2.70;;;;;;;5.81;83.50;100150.77;106072;1251;74661;-87
2023/04/01 02:18:14;;;;;;;6.40;3.30;;;;;;;5.81;83.32;100145.07;106252;1254;63842;-88
2023/04/01 02:20:44;;;;;;;7.00;2.20;;;;;;;5.79;83.24;100148.64;106015;1257;73639;-90
2023/04/01 02:23:12;;;;;;;6.60;2.50;;;;;;;5.77;83.46;100147.17;106023;1257;62090;-86
2023/04/01 02:25:38;;;;;;;10.50;2.90;;;;;;;5.75;83.48;100148.14;106288;1251;61155;-85
2023/04/01 02:28:06;;;;;;;10.20;2.90;;;;;;;5.74;84.04;100145.77;105950;1251;74283;-86
2023/04/01 02:30:35;;;;;;;9.40;2.70;;;;;;;5.73;84.09;100145.80;105878;1257;63763;-89
2023/04/01 02:33:04;;;;;;;7.90;3.20;;;;;;;5.71;84.45;100151.08;106064;1251;72459;-89
2023/04/01 02:35:33;;;;;;;9.20;3.20;;;;;;;5.69;84.64;100149.96;106062;1256;60035;-86
2023/04/01 02:38:00;;;;;;;11.90;3.10;;;;;;;5.65;85.03;100150.86;106087;1251;62380;-88
2023/04/01 02:40:44;;;;;;;6.10;2.60;;;;;;;5.60;85.23;100151.27;105978;1257;74059;-85
2023/04/01 02:43:12;;;;;;;10.70;2.70;;;;;;;5.56;85.83;100151.48;107123;1251;64217;-86
2023/04/01 02:45:44;;;;;;;9.00;3.40;;;;;;;5.53;86.45;100147.80;106071;1251;73528;-85
2023/04/01 02:48:13;;;;;;;7.20;2.40;;;;;;;5.51;86.98;100150.83;106132;1251;62748;-87
2023/04/01 02:50:40;;;;;;;8.00;2.50;;;;;;;5.50;87.67;100152.44;107976;1250;61296;-86
2023/04/01 02:53:08;;;;;;;7.60;2.90;;;;;;;5.49;87.92;100151.44;106526;1250;74092;-85
2023/04/01 02:55:35;;;;;;;8.00;3.20;;;;;;;5.49;88.49;100149.20;106385;1255;65429;-85
2023/04/01 02:58:07;;;;;;;8.20;3.20;;;;;;;5.47;88.69;100150.14;106060;1251;73726;-85
2023/04/01 03:00:36;;;;;;;15.20;4.70;;;;;;;5.47;88.92;100149.30;106496;1251;60909;-82
2023/04/01 03:03:03;;;;;;;7.90;3.50;;;;;;;5.43;89.22;100150.67;106128;1256;60006;-86
2023/04/01 03:05:31;;;;;;;5.70;3.20;;;;;;;5.40;89.41;100151.34;105985;1256;74164;-88
2023/04/01 03:08:00;;;;;;;8.80;2.40;;;;;;;5.39;89.92;100149.27;106174;1250;64731;-87
2023/04/01 03:10:27;;;;;;;7.50;3.50;;;;;;;5.42;90.29;100150.56;107301;1250;72674;-86
2023/04/01 03:12:56;;;;;;;6.20;3.20;;;;;;;5.45;90.45;100151.27;108013;1255;61281;-82
2023/04/01 03:15:26;;;;;;;5.50;3.20;;;;;;;5.50;90.58;100154.35;107064;1251;61344;-83
2023/04/01 03:17:55;;;;;;;10.60;4.60;;;;;;;5.51;90.41;100150.50;106339;1251;72706;-87
2023/04/01 03:20:23;;;;;;;10.80;5.90;;;;;;;5.51;90.18;100153.08;105970;1251;64861;-88
2023/04/01 03:22:50;;;;;;;6.50;3.90;;;;;;;5.52;90.09;100154.94;105915;1251;73501;-90
2023/04/01 03:25:18;;;;;;;6.40;3.40;;;;;;;5.52;90.06;100154.77;106091;1254;63535;-87
2023/04/01 03:27:47;;;;;;;6.70;3.30;;;;;;;5.50;90.18;100157.10;106540;1256;60704;-84
2023/04/01 03:30:14;;;;;;;7.40;3.30;;;;;;;5.51;90.38;100156.71;107310;1250;72868;-87
2023/04/01 03:32:46;;;;;;;7.30;3.20;;;;;;;5.50;90.37;100152.59;108146;1251;62870;-84
2023/04/01 03:35:13;;;;;;;11.70;4.50;;;;;;;5.51;90.33;100152.05;109611;1250;72642;-86
2023/04/01 03:37:40;;;;;;;17.50;8.80;;;;;;;5.51;90.33;100148.23;109440;1250;60534;-84
2023/04/01 03:40:08;;;;;;;8.10;4.30;;;;;;;5.52;90.24;100151.83;108818;1250;60001;-86
2023/04/01 03:42:35;;;;;;;6.00;3.90;;;;;;;5.53;89.99;100154.04;106204;1250;73987;-87
2023/04/01 03:45:04;;;;;;;7.40;3.40;;;;;;;5.53;90.04;100157.85;106175;1250;64027;-87
2023/04/01 03:47:31;;;;;;;9.70;3.20;;;;;;;5.53;89.81;100156.98;106177;1251;73417;-88
2023/04/01 03:49:59;;;;;;;9.30;3.20;;;;;;;5.51;89.61;100159.85;106059;1251;62908;-86
2023/04/01 03:52:27;;;;;;;5.90;3.00;;;;;;;5.49;89.76;100163.57;106053;1256;60313;-89
2023/04/01 03:54:54;;;;;;;8.10;3.70;;;;;;;5.48;89.50;100162.92;107139;1250;73945;-85
2023/04/01 03:57:24;;;;;;;7.30;3.80;;;;;;;5.49;89.77;100162.38;106210;1251;65074;-85
2023/04/01 03:59:52;;;;;;;10.00;6.60;;;;;;;5.50;89.63;100166.51;106492;1251;72870;-85
2023/04/01 04:02:19;;;;;;;29.40;12.80;;;;;;;5.47;89.41;100172.33;106203;1254;60083;-87
2023/04/01 04:04:47;;;;;;;5.60;3.20;;;;;;;5.45;89.27;100168.95;106296;1254;59985;-85
2023/04/01 04:07:14;;;;;;;7.00;3.20;;;;;;;5.47;89.36;100167.14;106269;1251;73915;-85
2023/04/01 04:09:59;;;;;;;7.10;5.30;;;;;;;5.44;89.47;100166.75;106196;1251;64846;-89
2023/04/01 04:12:26;;;;;;;11.30;5.50;;;;;;;5.42;89.69;100167.71;106280;1256;72634;-85
2023/04/01 04:14:53;;;;;;;8.70;5.40;;;;;;;5.41;89.88;100170.34;106684;1251;61106;-86
2023/04/01 04:17:21;;;;;;;14.30;5.10;;;;;;;5.38;90.11;100165.45;106454;1251;61050;-86
2023/04/01 04:19:52;;;;;;;8.10;4.00;;;;;;;5.40;90.19;100166.94;106628;1256;72755;-84
2023/04/01 04:22:19;;;;;;;7.30;4.50;;;;;;;5.39;90.38;100169.22;106505;1251;65158;-84
2023/04/01 04:24:50;;;;;;;11.40;4.90;;;;;;;5.39;90.51;100163.86;106212;1251;73891;-85
2023/04/01 04:27:17;;;;;;;8.30;3.30;;;;;;;5.39;90.77;100163.86;106277;1250;61046;-85
2023/04/01 04:29:53;;;;;;;9.20;3.20;;;;;;;5.36;90.84;100165.72;106380;1254;60270;-87
2023/04/01 04:32:20;;;;;;;8.20;3.50;;;;;;;5.36;91.43;100166.77;106010;1255;73965;-84
2023/04/01 04:34:46;;;;;;;7.60;4.80;;;;;;;5.38;91.68;100164.94;106224;1256;64838;-84
2023/04/01 04:37:13;;;;;;;7.60;3.20;;;;;;;5.41;91.91;100167.41;106058;1250;73467;-86
2023/04/01 04:39:41;;;;;;;5.80;3.60;;;;;;;5.44;92.07;100171.30;106022;1256;61393;-85
2023/04/01 04:42:09;;;;;;;7.80;5.00;;;;;;;5.46;91.98;100172.93;106038;1251;61416;-86
2023/04/01 04:44:39;;;;;;;9.00;3.60;;;;;;;5.47;92.15;100173.73;106554;1250;72730;-86
2023/04/01 04:47:07;;;;;;;10.10;4.90;;;;;;;5.50;92.11;100172.05;106080;1254;64752;-87
2023/04/01 04:49:40;;;;;;;10.00;3.60;;;;;;;5.52;92.28;100173.15;106021;1254;73637;-85
2023/04/01 04:52:08;;;;;;;6.20;3.30;;;;;;;5.54;92.03;100176.71;106024;1254;61668;-85
2023/04/01 04:54:35;;;;;;;10.70;3.70;;;;;;;5.54;91.98;100173.56;105982;1254;60546;-86
2023/04/01 04:57:03;;;;;;;4.00;3.30;;;;;;;5.52;91.99;100177.13;106151;1250;74745;-86
2023/04/01 04:59:36;;;;;;;9.50;4.00;;;;;;;5.53;91.96;100181.24;106429;1253;64994;-86
2023/04/01 05:02:13;;;;;;;7.80;3.90;;;;;;;5.53;92.12;100183.65;106283;1250;73400;-83
2023/04/01 05:04:43;;;;;;;7.60;4.20;;;;;;;5.54;91.96;100182.43;106522;1250;61908;-85
2023/04/01 05:07:11;;;;;;;10.10;4.50;;;;;;;5.53;92.06;100185.22;106051;1250;61277;-86
2023/04/01 05:09:40;;;;;;;7.20;3.50;;;;;;;5.53;92.07;100184.20;106384;1254;74858;-86
2023/04/01 05:12:07;;;;;;;7.20;3.70;;;;;;;5.53;92.29;100185.23;105989;1256;65256;-86
2023/04/01 05:14:58;;;;;;;7.70;4.00;;;;;;;5.55;92.52;100190.00;105900;1251;73827;-88
2023/04/01 05:17:26;;;;;;;9.60;4.80;;;;;;;5.56;92.52;100186.66;106651;1256;60771;-87
2023/04/01 05:19:54;;;;;;;9.40;4.60;;;;;;;5.56;92.21;100184.95;105954;1251;61596;-86
2023/04/01 05:22:21;;;;;;;10.00;4.60;;;;;;;5.56;92.06;100186.16;106012;1256;73778;-88
2023/04/01 05:24:49;;;;;;;9.30;5.00;;;;;;;5.55;92.29;100183.75;105858;1257;64902;-85
2023/04/01 05:27:17;;;;;;;8.60;4.60;;;;;;;5.55;92.55;100185.84;105874;1251;73626;-86
2023/04/01 05:29:45;;;;;;;11.20;4.90;;;;;;;5.55;92.53;100187.90;106041;1250;63049;-86
2023/04/01 05:32:28;;;;;;;13.30;6.50;;;;;;;5.58;92.70;100192.30;106124;1250;61872;-84
2023/04/01 05:34:56;;;;;;;11.40;5.50;;;;;;;5.60;92.77;100189.59;105946;1250;74812;-86
2023/04/01 05:37:23;;;;;;;15.40;6.00;;;;;;;5.64;92.54;100187.89;106016;1251;64747;-85
2023/04/01 05:39:50;;;;;;;9.80;5.10;;;;;;;5.66;92.53;100193.52;105914;1250;72575;-88
2023/04/01 05:42:17;;;;;;;13.20;4.80;;;;;;;5.67;92.50;100195.51;105986;1251;61402;-85
2023/04/01 05:44:44;;;;;;;11.70;5.70;;;;;;;5.69;92.53;100196.48;106189;1251;61372;-87
2023/04/01 05:47:32;;;;;;;13.90;5.90;;;;;;;5.71;92.76;100196.89;106880;1251;74763;-87
2023/04/01 05:50:00;;;;;;;11.90;5.20;;;;;;;5.74;92.72;100198.13;106705;1251;64914;-90
2023/04/01 05:52:27;;;;;;;15.90;5.00;;;;;;;5.78;92.61;100198.80;106148;1254;72847;-86
2023/04/01 05:54:53;;;;;;;13.20;5.60;;;;;;;5.84;92.59;100202.04;106101;1251;62186;-85
2023/04/01 05:57:21;;;;;;;9.20;5.80;;;;;;;5.87;92.37;100207.07;105964;1256;60336;-86
2023/04/01 05:59:48;;;;;;;11.60;6.70;;;;;;;5.90;92.47;100203.98;106363;1250;73860;-86
2023/04/01 06:02:19;;;;;;;11.00;5.00;;;;;;;5.95;92.62;100208.64;106342;1254;64812;-87
2023/04/01 06:04:47;;;;;;;9.60;5.30;;;;;;;5.99;92.44;100209.14;106199;1251;73817;-87
2023/04/01 06:07:16;;;;;;;14.10;6.20;;;;;;;6.03;92.47;100208.46;106092;1257;60578;-84
2023/04/01 06:09:44;;;;;;;13.30;7.00;;;;;;;6.05;92.40;100213.40;106276;1250;60967;-85
2023/04/01 06:12:47;;;;;;;9.00;4.70;;;;;;;6.06;92.42;100219.58;106242;1253;75045;-84
2023/04/01 06:27:36;;;;;;;12.50;5.30;;;;;;;6.45;92.81;100217.85;103276;1286;599611;-86
2023/04/01 06:30:41;;;;;;;9.30;4.20;;;;;;;6.49;92.20;100226.71;107045;1267;61750;-83
2023/04/01 06:33:34;;;;;;;12.90;4.70;;;;;;;6.51;92.24;100227.30;107560;1257;60986;-85
2023/04/01 06:36:20;;;;;;;7.00;4.90;;;;;;;6.52;92.41;100232.42;106884;1258;72176;-85
2023/04/01 06:39:01;;;;;;;9.80;5.20;;;;;;;6.56;92.57;100234.50;107335;1257;63794;-82
2023/04/01 06:41:40;;;;;;;7.60;4.50;;;;;;;6.61;92.62;100235.98;105111;1254;801622;-85
2023/04/01 06:44:19;;;;;;;7.70;4.90;;;;;;;6.66;92.48;100238.52;105977;1253;61357;-83
2023/04/01 06:47:33;;;;;;;14.80;7.70;;;;;;;6.72;92.54;100239.61;106072;1254;61181;-87
2023/04/01 06:50:41;;;;;;;8.40;5.10;;;;;;;6.77;92.20;100243.36;107191;1259;73245;-87
2023/04/01 06:53:34;;;;;;;10.90;5.90;;;;;;;6.80;91.97;100239.91;106765;1259;63876;-85
2023/04/01 06:56:22;;;;;;;7.10;4.90;;;;;;;6.79;92.03;100241.84;106025;1254;73599;-86
2023/04/01 06:59:17;;;;;;;10.60;4.60;;;;;;;6.79;92.30;100245.14;106063;1254;63267;-87
2023/04/01 07:01:49;;;;;;;12.30;5.50;;;;;;;6.81;92.32;100246.12;106115;1254;60078;-88
2023/04/01 07:04:20;;;;;;;10.20;4.30;;;;;;;6.84;92.52;100248.02;105931;1254;73357;-85
2023/04/01 07:06:58;;;;;;;9.30;5.10;;;;;;;6.89;92.42;100250.79;106143;1257;64772;-87
2023/04/01 07:09:38;;;;;;;9.30;5.30;;;;;;;6.90;92.50;100249.14;106046;1260;73704;-87
2023/04/01 07:12:32;;;;;;;9.00;5.20;;;;;;;6.90;92.57;100252.80;106101;1259;61281;-86
2023/04/01 07:15:30;;;;;;;8.00;5.00;;;;;;;6.91;92.66;100255.68;106079;1254;61557;-87
2023/04/01 07:18:05;;;;;;;16.10;8.20;;;;;;;6.92;92.68;100259.96;105939;1254;74277;-85
2023/04/01 07:20:35;;;;;;;11.70;6.20;;;;;;;6.93;92.88;100263.23;105834;1261;63803;-87
2023/04/01 07:23:22;;;;;;;9.80;5.10;;;;;;;6.96;93.01;100263.41;105812;1254;72684;-85
2023/04/01 07:26:22;;;;;;;8.20;4.50;;;;;;;6.99;93.09;100258.90;105766;1254;61158;-87
2023/04/01 07:29:12;;;;;;;9.10;5.00;;;;;;;7.03;93.04;100260.09;107175;1254;59663;-87
2023/04/01 07:32:05;;;;;;;10.10;5.30;;;;;;;7.08;93.05;100259.69;107082;1254;71432;-84
2023/04/01 07:34:53;;;;;;;9.50;5.00;;;;;;;7.11;92.90;100258.66;106171;1258;64985;-86
2023/04/01 07:37:34;;;;;;;10.40;6.20;;;;;;;7.14;92.89;100257.47;105957;1254;72556;-87
2023/04/01 07:40:24;;;;;;;12.50;5.80;;;;;;;7.20;92.83;100256.30;106063;1259;63221;-87
2023/04/01 07:43:35;;;;;;;15.00;5.80;;;;;;;7.27;92.63;100252.11;106078;1254;61185;-86
2023/04/01 07:46:30;;;;;;;10.30;5.90;;;;;;;7.31;92.32;100251.73;106030;1259;73852;-86
2023/04/01 07:49:07;;;;;;;12.60;5.20;;;;;;;7.33;92.27;100253.00;105999;1254;63820;-85
2023/04/01 07:51:41;;;;;;;10.50;5.60;;;;;;;7.36;92.23;100254.05;106015;1254;73653;-85
2023/04/01 07:54:29;;;;;;;12.70;5.70;;;;;;;7.39;92.14;100252.85;106026;1254;61664;-84
2023/04/01 07:57:20;;;;;;;13.00;6.20;;;;;;;7.42;91.92;100255.13;106205;1254;60003;-86
2023/04/01 08:00:26;;;;;;;11.40;5.60;;;;;;;7.44;91.97;100257.83;107648;1254;74002;-83
2023/04/01 08:03:23;;;;;;;13.60;5.60;;;;;;;7.46;91.75;100259.46;109163;1254;63833;-85
2023/04/01 08:05:57;;;;;;;19.30;8.70;;;;;;;7.47;91.69;100262.86;108067;1254;72797;-84
2023/04/01 08:08:37;;;;;;;25.10;12.40;;;;;;;7.50;91.63;100265.52;107344;1258;61613;-85
2023/04/01 08:11:32;;;;;;;13.50;6.10;;;;;;;7.54;91.52;100267.05;106067;1258;61333;-86
2023/04/01 08:15:04;;;;;;;8.20;5.20;;;;;;;7.59;91.30;100273.55;106427;1255;73090;-87
2023/04/01 08:18:07;;;;;;;13.40;5.30;;;;;;;7.64;90.94;100277.99;106278;1254;63905;-86
2023/04/01 08:21:00;;;;;;;11.20;5.30;;;;;;;7.65;90.76;100280.52;106271;1254;72689;-86
2023/04/01 08:23:33;;;;;;;11.50;5.40;;;;;;;7.66;90.50;100281.70;106163;1254;59586;-86
2023/04/01 08:26:35;;;;;;;11.00;5.50;;;;;;;7.66;90.37;100281.69;106193;1256;61039;-86
2023/04/01 08:29:11;;;;;;;14.70;5.40;;;;;;;7.64;90.08;100283.05;106259;1254;74024;-86
2023/04/01 08:32:00;;;;;;;9.50;5.20;;;;;;;7.62;90.24;100282.59;106060;1254;64523;-84
2023/04/01 08:35:07;;;;;;;11.50;6.00;;;;;;;7.64;90.48;100284.73;106609;1254;73772;-87
2023/04/01 08:37:43;;;;;;;7.00;5.00;;;;;;;7.71;90.34;100282.47;107494;1254;60718;-85
2023/04/01 08:53:15;;;;;;;11.50;6.90;;;;;;;8.08;88.25;100276.98;103503;1286;616256;-85
2023/04/01 08:55:51;;;;;;;12.20;5.50;;;;;;;8.14;87.25;100273.91;105538;1267;61710;-85
2023/04/01 08:58:54;;;;;;;10.20;6.00;;;;;;;8.18;87.02;100274.17;105410;1267;59960;-86
2023/04/01 09:01:44;;;;;;;15.20;7.30;;;;;;;8.26;86.61;100276.65;105265;1267;72649;-86
2023/04/01 09:04:49;;;;;;;10.60;5.40;;;;;;;8.36;86.32;100271.61;105478;1263;176374;-86
2023/04/01 09:07:35;;;;;;;81.10;46.80;;;;;;;8.45;86.00;100273.19;105492;1263;72388;-84
2023/04/01 09:10:51;;;;;;;20.00;10.60;;;;;;;8.50;85.43;100277.45;106035;1266;60584;-85
2023/04/01 09:13:52;;;;;;;18.50;11.20;;;;;;;8.56;85.17;100276.63;106302;1273;59694;-84
2023/04/01 09:16:45;;;;;;;18.90;8.50;;;;;;;8.62;85.30;100277.98;106394;1269;71997;-86
2023/04/01 09:19:34;;;;;;;13.50;6.60;;;;;;;8.69;84.81;100279.32;105420;1270;62853;-84
2023/04/01 09:22:22;;;;;;;10.80;6.00;;;;;;;8.73;84.41;100279.44;105459;1268;73022;-86
2023/04/01 09:25:02;;;;;;;10.70;6.10;;;;;;;8.77;84.26;100278.70;105726;1267;62925;-86
2023/04/01 09:27:34;;;;;;;11.10;5.30;;;;;;;8.82;84.04;100283.80;106047;1268;61236;-84
2023/04/01 09:30:25;;;;;;;15.70;8.20;;;;;;;8.87;84.14;100283.16;105607;1271;73827;-86
2023/04/01 09:33:19;;;;;;;12.40;7.00;;;;;;;8.97;84.10;100288.20;105196;1266;64636;-87
2023/04/01 09:35:47;;;;;;;14.20;6.70;;;;;;;9.03;83.19;100284.52;105036;1266;73578;-86
2023/04/01 09:38:15;;;;;;;17.00;6.80;;;;;;;9.03;82.47;100286.41;105301;1269;61516;-86
2023/04/01 09:40:55;;;;;;;12.80;6.50;;;;;;;8.98;82.32;100280.99;105255;1263;61190;-84
2023/04/01 09:44:01;;;;;;;17.60;7.70;;;;;;;8.91;82.26;100285.20;105339;1266;74330;-87
2023/04/01 09:46:40;;;;;;;14.80;5.70;;;;;;;8.86;82.36;100280.47;105363;1260;64873;-86
2023/04/01 09:49:26;;;;;;;14.10;5.80;;;;;;;8.84;82.50;100280.23;106928;1265;74441;-88
2023/04/01 09:52:15;;;;;;;14.80;6.40;;;;;;;8.89;82.80;100285.66;107335;1254;60911;-87
2023/04/01 09:54:53;;;;;;;11.30;8.00;;;;;;;8.94;82.62;100286.58;107248;1254;60325;-83
2023/04/01 09:58:04;;;;;;;10.50;5.60;;;;;;;8.98;82.53;100289.38;107153;1254;71845;-85
2023/04/01 10:01:31;;;;;;;14.30;9.80;;;;;;;8.99;81.71;100288.77;107208;1260;63916;-83
2023/04/01 10:04:31;;;;;;;11.10;8.20;;;;;;;8.95;81.89;100292.47;107915;1264;72730;-83
2023/04/01 10:07:27;;;;;;;11.80;5.90;;;;;;;8.98;81.95;100292.83;106055;1260;62773;-85
2023/04/01 10:10:14;;;;;;;15.70;8.70;;;;;;;8.97;81.83;100285.77;105629;1260;60330;-83
2023/04/01 10:12:53;;;;;;;12.60;6.60;;;;;;;8.93;82.00;100287.52;105759;1260;73802;-86
2023/04/01 10:15:52;;;;;;;11.90;5.40;;;;;;;8.94;82.38;100282.95;106209;1263;64977;-85
2023/04/01 10:18:32;;;;;;;7.00;5.20;;;;;;;8.95;82.44;100284.30;105458;1260;73670;-87
2023/04/01 10:21:43;;;;;;;12.70;6.70;;;;;;;8.91;82.89;100282.41;105330;1261;61758;-87
2023/04/01 10:24:23;;;;;;;13.00;7.50;;;;;;;8.97;83.12;100282.80;106100;1271;61498;-84
2023/04/01 10:27:01;;;;;;;12.90;7.80;;;;;;;9.01;83.22;100280.65;105953;1269;73107;-84
2023/04/01 10:30:10;;;;;;;14.20;7.20;;;;;;;8.97;83.36;100275.27;105469;1267;64023;-87
2023/04/01 10:32:41;;;;;;;17.50;10.10;;;;;;;8.96;83.44;100273.59;104804;1268;74808;-86
2023/04/01 10:35:29;;;;;;;27.10;14.60;;;;;;;8.94;83.27;100272.11;104867;1267;63066;-86
2023/04/01 10:38:16;;;;;;;9.50;6.90;;;;;;;8.94;83.27;100269.70;105386;1260;61054;-85
2023/04/01 10:41:17;;;;;;;10.90;5.80;;;;;;;8.95;83.28;100269.98;105774;1260;73862;-86
2023/04/01 10:44:17;;;;;;;12.30;7.30;;;;;;;8.96;83.25;100267.30;105699;1265;63643;-87
2023/04/01 10:46:56;;;;;;;14.40;8.20;;;;;;;9.00;83.16;100264.95;105360;1260;73506;-85
2023/04/01 10:49:28;;;;;;;20.10;9.60;;;;;;;9.05;82.88;100269.75;105306;1265;61395;-87
2023/04/01 10:52:23;;;;;;;14.60;8.70;;;;;;;9.07;82.69;100265.09;105440;1260;61799;-87
2023/04/01 10:55:35;;;;;;;15.90;9.50;;;;;;;9.10;82.68;100263.16;106129;1262;74247;-86
2023/04/01 10:58:47;;;;;;;17.50;10.40;;;;;;;9.18;82.83;100262.52;105714;1260;64292;-85
2023/04/01 11:02:23;;;;;;;18.40;7.80;;;;;;;9.29;82.77;100253.10;106514;1255;74295;-85
2023/04/01 11:05:37;;;;;;;17.30;8.50;;;;;;;9.36;82.33;100251.65;106548;1256;62065;-87
2023/04/01 11:08:25;;;;;;;19.00;9.60;;;;;;;9.39;81.97;100247.66;106394;1254;61266;-85
2023/04/01 11:11:13;;;;;;;19.60;9.60;;;;;;;9.39;81.78;100249.55;106466;1253;73113;-85
2023/04/01 11:13:57;;;;;;;18.40;9.70;;;;;;;9.42;81.87;100249.95;106441;1256;64817;-86
2023/04/01 11:16:40;;;;;;;16.90;9.50;;;;;;;9.44;81.67;100251.91;106003;1251;73600;-86
2023/04/01 11:19:26;;;;;;;16.70;8.50;;;;;;;9.42;81.49;100253.77;106835;1251;62771;-87
2023/04/01 11:22:00;;;;;;;16.00;9.30;;;;;;;9.38;81.57;100254.15;106958;1251;61199;-85
2023/04/01 11:24:56;;;;;;;17.40;9.40;;;;;;;9.34;82.01;100255.06;106314;1251;72986;-85
2023/04/01 11:27:46;;;;;;;17.30;10.50;;;;;;;9.31;82.14;100259.08;107126;1254;63686;-86
2023/04/01 11:30:26;;;;;;;13.90;8.10;;;;;;;9.31;82.39;100253.37;106221;1251;72661;-85
2023/04/01 11:33:00;;;;;;;20.10;11.30;;;;;;;9.33;82.25;100260.25;106601;1251;61171;-85
2023/04/01 11:35:38;;;;;;;17.30;9.90;;;;;;;9.29;82.20;100261.70;107005;1251;59638;-87
2023/04/01 11:38:22;;;;;;;15.80;8.50;;;;;;;9.28;82.21;100261.59;106590;1254;73800;-85
2023/04/01 11:41:23;;;;;;;18.40;9.60;;;;;;;9.23;82.37;100262.55;106990;1251;65207;-86
2023/04/01 11:44:23;;;;;;;14.30;9.10;;;;;;;9.19;82.52;100258.77;107690;1255;71825;-86
2023/04/01 11:47:29;;;;;;;13.40;8.50;;;;;;;9.18;82.68;100258.36;107877;1251;60714;-85
2023/04/01 11:50:36;;;;;;;13.90;7.40;;;;;;;9.17;82.97;100258.95;107685;1256;59548;-87
2023/04/01 11:53:35;;;;;;;17.40;9.70;;;;;;;9.15;83.24;100261.48;106482;1254;73254;-88
2023/04/01 11:56:07;;;;;;;18.10;9.30;;;;;;;9.19;83.46;100260.03;105977;1254;64883;-87
2023/04/01 11:58:47;;;;;;;19.40;10.70;;;;;;;9.26;83.60;100262.91;107036;1255;72460;-87
2023/04/01 12:01:48;;;;;;;21.00;10.60;;;;;;;9.30;83.47;100264.96;107008;1255;60195;-86
2023/04/01 12:04:42;;;;;;;22.80;13.00;;;;;;;9.28;83.49;100266.60;106922;1251;60915;-87
2023/04/01 12:07:37;;;;;;;37.20;18.20;;;;;;;9.27;83.55;100269.98;107855;1251;73417;-86
2023/04/01 12:10:39;;;;;;;20.80;9.60;;;;;;;9.24;83.99;100270.69;107706;1251;63093;-86
2023/04/01 12:13:36;;;;;;;17.90;9.70;;;;;;;9.18;84.68;100272.11;108012;1254;73779;-83
2023/04/01 12:16:10;;;;;;;14.40;10.10;;;;;;;9.12;85.51;100272.29;107625;1251;61503;-86
2023/04/01 12:18:38;;;;;;;15.60;10.20;;;;;;;9.09;86.10;100272.80;107745;1253;61512;-87
2023/04/01 12:21:18;;;;;;;20.20;10.20;;;;;;;9.07;86.62;100269.97;107720;1251;73875;-84
2023/04/01 12:24:10;;;;;;;16.60;9.60;;;;;;;9.06;87.00;100271.29;107532;1251;63289;-86
2023/04/01 12:26:43;;;;;;;21.30;11.80;;;;;;;9.06;87.58;100268.29;106335;1254;72490;-85
2023/04/01 12:29:38;;;;;;;22.40;12.40;;;;;;;9.10;88.22;100268.73;106538;1255;61654;-85
2023/04/01 12:32:15;;;;;;;22.10;10.80;;;;;;;9.12;88.56;100271.05;106540;1253;60422;-86
2023/04/01 12:35:06;;;;;;;21.50;11.00;;;;;;;9.11;88.98;100268.70;107674;1255;74372;-87
2023/04/01 12:38:15;;;;;;;16.20;10.80;;;;;;;9.09;89.36;100262.88;107650;1251;64480;-83
2023/04/01 12:41:10;;;;;;;29.40;11.80;;;;;;;9.11;89.35;100265.00;106918;1251;71036;-85
2023/04/01 12:44:17;;;;;;;20.40;12.20;;;;;;;9.13;89.56;100257.05;107321;1251;61336;-86
2023/04/01 12:47:10;;;;;;;29.20;15.10;;;;;;;9.19;89.60;100252.02;106889;1256;60403;-86
2023/04/01 12:54:20;;;;;;;26.10;16.90;;;;;;;9.34;89.09;100252.83;104114;1294;600036;-85
2023/04/01 12:58:17;;;;;;;18.80;11.00;;;;;;;9.37;88.72;100252.48;105645;1267;61672;-85
2023/04/01 13:01:20;;;;;;;28.50;18.10;;;;;;;9.40;88.45;100251.05;105684;1273;61344;-87
2023/04/01 13:04:25;;;;;;;18.10;10.70;;;;;;;9.44;88.45;100248.90;106557;1273;72844;-85
2023/04/01 13:07:35;;;;;;;25.20;12.60;;;;;;;9.49;88.11;100248.80;105852;1263;1200828;-85
2023/04/01 13:12:00;;;;;;;19.20;12.30;;;;;;;9.58;87.93;100249.45;103507;1291;615487;-85
2023/04/01 13:14:56;;;;;;;18.50;12.10;;;;;;;9.63;87.73;100248.44;105141;1268;63378;-84
2023/04/01 13:17:43;;;;;;;21.70;12.70;;;;;;;9.64;87.43;100245.98;105489;1267;61254;-86
2023/04/01 13:20:16;;;;;;;18.90;10.70;;;;;;;9.61;87.56;100245.41;105443;1269;72015;-86
2023/04/01 13:23:15;;;;;;;21.30;10.90;;;;;;;9.57;87.50;100245.14;105213;1271;64650;-87
2023/04/01 13:25:53;;;;;;;18.80;10.40;;;;;;;9.57;87.73;100245.51;105119;1257;72135;-86
2023/04/01 13:28:56;;;;;;;19.60;10.90;;;;;;;9.57;87.48;100246.04;105514;1261;63151;-84
2023/04/01 13:31:50;;;;;;;19.60;12.10;;;;;;;9.56;87.51;100244.69;105609;1259;60316;-85